sensor_id;sensor_type;location;lat;lon;timestamp;pressure;altitude;pressure_sealevel;temperature;humidity
79236;BME280;69062;47.460;18.812;2023-04-12T00:00:36;99735.91;;;6.98;76.46
79236;BME280;69062;47.460;18.812;2023-04-12T00:01:37;99738.63;;;6.95;76.90
79236;BME280;69062;47.460;18.812;2023-04-12T00:03:04;99741.41;;;6.92;76.46
79236;BME280;69062;47.460;18.812;2023-04-12T00:04:14;99739.94;;;6.85;76.56
79236;BME280;69062;47.460;18.812;2023-04-12T00:05:16;99741.53;;;6.89;76.89
79236;BME280;69062;47.460;18.812;2023-04-12T00:06:18;99740.88;;;6.84;76.47
79236;BME280;69062;47.460;18.812;2023-04-12T00:07:25;99739.94;;;6.85;76.41
79236;BME280;69062;47.460;18.812;2023-04-12T00:08:28;99734.63;;;6.86;77.09
79236;BME280;69062;47.460;18.812;2023-04-12T00:09:33;99733.59;;;6.90;77.01
79236;BME280;69062;47.460;18.812;2023-04-12T00:10:36;99725.97;;;6.84;77.13
79236;BME280;69062;47.460;18.812;2023-04-12T00:12:02;99727.44;;;6.91;76.76
79236;BME280;69062;47.460;18.812;2023-04-12T00:13:04;99718.16;;;6.83;76.68
79236;BME280;69062;47.460;18.812;2023-04-12T00:14:06;99718.56;;;6.74;77.54
79236;BME280;69062;47.460;18.812;2023-04-12T00:15:08;99730.56;;;6.79;77.18
79236;BME280;69062;47.460;18.812;2023-04-12T00:16:20;99721.81;;;6.79;76.62
79236;BME280;69062;47.460;18.812;2023-04-12T00:17:46;99727.31;;;6.73;77.35
79236;BME280;69062;47.460;18.812;2023-04-12T00:18:48;99733.50;;;6.72;77.76
79236;BME280;69062;47.460;18.812;2023-04-12T00:19:50;99727.38;;;6.71;77.45
79236;BME280;69062;47.460;18.812;2023-04-12T00:20:54;99725.38;;;6.78;78.33
79236;BME280;69062;47.460;18.812;2023-04-12T00:23:24;99719.34;;;6.76;77.83
79236;BME280;69062;47.460;18.812;2023-04-12T00:24:25;99724.66;;;6.74;78.02
79236;BME280;69062;47.460;18.812;2023-04-12T00:25:27;99726.59;;;6.69;78.35
79236;BME280;69062;47.460;18.812;2023-04-12T00:26:28;99722.75;;;6.78;77.73
79236;BME280;69062;47.460;18.812;2023-04-12T00:27:29;99719.34;;;6.76;77.76
79236;BME280;69062;47.460;18.812;2023-04-12T00:29:57;99718.41;;;6.77;78.16
79236;BME280;69062;47.460;18.812;2023-04-12T00:31:07;99723.00;;;6.72;77.19
79236;BME280;69062;47.460;18.812;2023-04-12T00:32:08;99708.41;;;6.64;78.13
79236;BME280;69062;47.460;18.812;2023-04-12T00:33:10;99711.78;;;6.68;77.75
79236;BME280;69062;47.460;18.812;2023-04-12T00:34:11;99717.88;;;6.69;78.16
79236;BME280;69062;47.460;18.812;2023-04-12T00:35:12;99709.75;;;6.75;77.68
79236;BME280;69062;47.460;18.812;2023-04-12T00:36:14;99712.25;;;6.78;77.29
79236;BME280;69062;47.460;18.812;2023-04-12T00:37:16;99711.56;;;6.73;77.90
79236;BME280;69062;47.460;18.812;2023-04-12T00:40:49;99714.47;;;6.67;77.33
79236;BME280;69062;47.460;18.812;2023-04-12T00:43:19;99722.34;;;6.67;77.18
79236;BME280;69062;47.460;18.812;2023-04-12T00:44:20;99722.13;;;6.71;77.45
79236;BME280;69062;47.460;18.812;2023-04-12T00:45:53;99720.13;;;6.78;76.99
79236;BME280;69062;47.460;18.812;2023-04-12T00:46:54;99710.78;;;6.71;76.51
79236;BME280;69062;47.460;18.812;2023-04-12T00:47:56;99712.63;;;6.69;76.82
79236;BME280;69062;47.460;18.812;2023-04-12T00:48:58;99721.22;;;6.72;76.51
79236;BME280;69062;47.460;18.812;2023-04-12T00:50:00;99720.63;;;6.66;77.17
79236;BME280;69062;47.460;18.812;2023-04-12T00:51:05;99715.38;;;6.66;76.72
79236;BME280;69062;47.460;18.812;2023-04-12T00:52:32;99718.50;;;6.75;76.82
79236;BME280;69062;47.460;18.812;2023-04-12T00:53:39;99713.56;;;6.68;76.42
79236;BME280;69062;47.460;18.812;2023-04-12T00:54:42;99715.06;;;6.73;76.19
79236;BME280;69062;47.460;18.812;2023-04-12T00:55:45;99719.44;;;6.73;76.36
79236;BME280;69062;47.460;18.812;2023-04-12T00:56:47;99715.19;;;6.70;76.52
79236;BME280;69062;47.460;18.812;2023-04-12T00:57:50;99724.16;;;6.64;77.64
79236;BME280;69062;47.460;18.812;2023-04-12T00:58:52;99716.97;;;6.70;76.59
79236;BME280;69062;47.460;18.812;2023-04-12T00:59:53;99713.34;;;6.72;76.14
79236;BME280;69062;47.460;18.812;2023-04-12T01:00:55;99710.69;;;6.74;75.88
79236;BME280;69062;47.460;18.812;2023-04-12T01:02:02;99702.66;;;6.77;75.63
79236;BME280;69062;47.460;18.812;2023-04-12T01:03:03;99701.66;;;6.81;75.79
79236;BME280;69062;47.460;18.812;2023-04-12T01:04:06;99707.50;;;6.66;76.22
79236;BME280;69062;47.460;18.812;2023-04-12T01:05:11;99703.31;;;6.61;76.21
79236;BME280;69062;47.460;18.812;2023-04-12T01:07:57;99707.63;;;6.62;75.61
79236;BME280;69062;47.460;18.812;2023-04-12T01:11:57;99710.00;;;6.69;75.65
79236;BME280;69062;47.460;18.812;2023-04-12T01:14:54;99712.13;;;6.59;75.51
79236;BME280;69062;47.460;18.812;2023-04-12T01:16:25;99716.59;;;6.57;76.35
79236;BME280;69062;47.460;18.812;2023-04-12T01:17:29;99712.50;;;6.50;75.96
79236;BME280;69062;47.460;18.812;2023-04-12T01:18:40;99709.72;;;6.54;76.44
79236;BME280;69062;47.460;18.812;2023-04-12T01:20:05;99712.94;;;6.61;75.23
79236;BME280;69062;47.460;18.812;2023-04-12T01:21:30;99713.47;;;6.69;75.25
79236;BME280;69062;47.460;18.812;2023-04-12T01:24:29;99712.94;;;6.61;75.35
79236;BME280;69062;47.460;18.812;2023-04-12T01:27:45;99712.88;;;6.62;75.12
79236;BME280;69062;47.460;18.812;2023-04-12T01:28:51;99709.72;;;6.54;75.31
79236;BME280;69062;47.460;18.812;2023-04-12T01:29:55;99713.88;;;6.60;75.13
79236;BME280;69062;47.460;18.812;2023-04-12T01:31:24;99717.13;;;6.65;75.14
79236;BME280;69062;47.460;18.812;2023-04-12T01:32:28;99713.72;;;6.63;75.15
79236;BME280;69062;47.460;18.812;2023-04-12T01:33:32;99717.09;;;6.67;74.65
79236;BME280;69062;47.460;18.812;2023-04-12T01:34:37;99719.72;;;6.67;74.30
79236;BME280;69062;47.460;18.812;2023-04-12T01:36:24;99719.91;;;6.62;74.49
79236;BME280;69062;47.460;18.812;2023-04-12T01:37:29;99710.44;;;6.58;74.64
79236;BME280;69062;47.460;18.812;2023-04-12T01:39:57;99721.13;;;6.53;75.11
79236;BME280;69062;47.460;18.812;2023-04-12T01:41:07;99713.25;;;6.53;75.05
79236;BME280;69062;47.460;18.812;2023-04-12T01:42:08;99723.38;;;6.62;74.39
79236;BME280;69062;47.460;18.812;2023-04-12T01:43:11;99725.00;;;6.65;74.93
79236;BME280;69062;47.460;18.812;2023-04-12T01:44:37;99729.28;;;6.68;73.80
79236;BME280;69062;47.460;18.812;2023-04-12T01:45:40;99732.03;;;6.64;74.39
79236;BME280;69062;47.460;18.812;2023-04-12T01:46:45;99729.28;;;6.68;73.90
79236;BME280;69062;47.460;18.812;2023-04-12T01:51:51;99723.63;;;6.56;74.20
79236;BME280;69062;47.460;18.812;2023-04-12T01:54:37;99738.03;;;6.68;73.73
79236;BME280;69062;47.460;18.812;2023-04-12T01:55:43;99733.13;;;6.59;74.21
79236;BME280;69062;47.460;18.812;2023-04-12T01:58:40;99734.19;;;6.55;74.28
79236;BME280;69062;47.460;18.812;2023-04-12T02:00:08;99736.81;;;6.55;73.87
79236;BME280;69062;47.460;18.812;2023-04-12T02:01:15;99735.34;;;6.48;75.05
79236;BME280;69062;47.460;18.812;2023-04-12T02:02:18;99735.19;;;6.51;75.15
79236;BME280;69062;47.460;18.812;2023-04-12T02:03:21;99737.19;;;6.46;74.94
79236;BME280;69062;47.460;18.812;2023-04-12T02:04:24;99734.59;;;6.44;75.19
79236;BME280;69062;47.460;18.812;2023-04-12T02:05:30;99732.88;;;6.43;74.86
79236;BME280;69062;47.460;18.812;2023-04-12T02:06:56;99737.19;;;6.46;74.55
79236;BME280;69062;47.460;18.812;2023-04-12T02:08:22;99736.50;;;6.41;74.67
79236;BME280;69062;47.460;18.812;2023-04-12T02:09:48;99738.31;;;6.39;75.76
79236;BME280;69062;47.460;18.812;2023-04-12T02:11:18;99735.75;;;6.37;75.26
79236;BME280;69062;47.460;18.812;2023-04-12T02:14:02;99732.25;;;6.36;75.18
79236;BME280;69062;47.460;18.812;2023-04-12T02:15:04;99726.16;;;6.36;74.99
79236;BME280;69062;47.460;18.812;2023-04-12T02:16:08;99736.03;;;6.29;75.10
79236;BME280;69062;47.460;18.812;2023-04-12T02:18:40;99727.78;;;6.40;75.64
79236;BME280;69062;47.460;18.812;2023-04-12T02:19:44;99727.31;;;6.29;75.10
79236;BME280;69062;47.460;18.812;2023-04-12T02:20:56;99724.47;;;6.35;74.96
79236;BME280;69062;47.460;18.812;2023-04-12T02:23:45;99723.78;;;6.30;75.00
79236;BME280;69062;47.460;18.812;2023-04-12T02:24:48;99717.75;;;6.28;75.24
79236;BME280;69062;47.460;18.812;2023-04-12T02:25:49;99725.06;;;6.20;76.10
79236;BME280;69062;47.460;18.812;2023-04-12T02:26:51;99726.66;;;6.24;75.55
79236;BME280;69062;47.460;18.812;2023-04-12T02:27:53;99721.72;;;6.16;75.31
79236;BME280;69062;47.460;18.812;2023-04-12T02:30:48;99723.59;;;6.13;74.93
79236;BME280;69062;47.460;18.812;2023-04-12T02:31:58;99724.19;;;5.97;76.20
79236;BME280;69062;47.460;18.812;2023-04-12T02:33:06;99722.25;;;6.02;75.95
79236;BME280;69062;47.460;18.812;2023-04-12T02:34:10;99725.53;;;6.07;75.96
79236;BME280;69062;47.460;18.812;2023-04-12T02:35:18;99725.66;;;6.04;75.95
79236;BME280;69062;47.460;18.812;2023-04-12T02:36:24;99719.00;;;5.96;75.87
79236;BME280;69062;47.460;18.812;2023-04-12T02:37:29;99719.25;;;5.88;76.57
79236;BME280;69062;47.460;18.812;2023-04-12T02:38:55;99726.16;;;5.91;76.99
79236;BME280;69062;47.460;18.812;2023-04-12T02:39:58;99721.25;;;5.81;76.26
79236;BME280;69062;47.460;18.812;2023-04-12T02:42:41;99716.63;;;5.88;76.97
79236;BME280;69062;47.460;18.812;2023-04-12T02:43:54;99722.78;;;5.87;76.54
79236;BME280;69062;47.460;18.812;2023-04-12T02:45:02;99713.38;;;5.81;76.59
79236;BME280;69062;47.460;18.812;2023-04-12T02:46:04;99722.72;;;5.89;76.21
79236;BME280;69062;47.460;18.812;2023-04-12T02:47:13;99721.88;;;5.88;76.41
79236;BME280;69062;47.460;18.812;2023-04-12T02:48:24;99720.22;;;5.86;76.38
79236;BME280;69062;47.460;18.812;2023-04-12T02:49:30;99714.31;;;5.80;76.67
79236;BME280;69062;47.460;18.812;2023-04-12T02:50:57;99715.09;;;5.82;77.26
79236;BME280;69062;47.460;18.812;2023-04-12T02:52:04;99711.78;;;5.77;77.22
79236;BME280;69062;47.460;18.812;2023-04-12T02:53:38;99709.16;;;5.77;76.68
79236;BME280;69062;47.460;18.812;2023-04-12T02:55:11;99711.84;;;5.76;76.95
79236;BME280;69062;47.460;18.812;2023-04-12T02:56:16;99702.28;;;5.75;77.10
79236;BME280;69062;47.460;18.812;2023-04-12T02:57:47;99709.00;;;5.82;76.83
79236;BME280;69062;47.460;18.812;2023-04-12T02:59:14;99709.09;;;5.79;76.68
79236;BME280;69062;47.460;18.812;2023-04-12T03:01:00;99708.25;;;5.78;76.72
79236;BME280;69062;47.460;18.812;2023-04-12T03:02:15;99704.53;;;5.84;76.23
79236;BME280;69062;47.460;18.812;2023-04-12T03:03:27;99702.22;;;5.76;76.47
79236;BME280;69062;47.460;18.812;2023-04-12T03:04:56;99702.97;;;5.80;76.55
79236;BME280;69062;47.460;18.812;2023-04-12T03:06:31;99702.06;;;5.81;76.46
79236;BME280;69062;47.460;18.812;2023-04-12T03:09:17;99701.13;;;5.82;76.00
79236;BME280;69062;47.460;18.812;2023-04-12T03:10:43;99693.16;;;5.85;75.71
79236;BME280;69062;47.460;18.812;2023-04-12T03:12:09;99689.50;;;5.89;75.57
79236;BME280;69062;47.460;18.812;2023-04-12T03:15:08;99684.09;;;5.70;76.21
79236;BME280;69062;47.460;18.812;2023-04-12T03:20:03;99683.59;;;5.61;76.62
79236;BME280;69062;47.460;18.812;2023-04-12T03:21:30;99688.06;;;5.59;76.90
79236;BME280;69062;47.460;18.812;2023-04-12T03:22:59;99686.09;;;5.64;76.79
79236;BME280;69062;47.460;18.812;2023-04-12T03:24:27;99677.78;;;5.52;77.17
79236;BME280;69062;47.460;18.812;2023-04-12T03:25:54;99686.22;;;5.61;76.94
79236;BME280;69062;47.460;18.812;2023-04-12T03:27:10;99682.56;;;5.65;76.75
79236;BME280;69062;47.460;18.812;2023-04-12T03:28:12;99681.25;;;5.53;76.63
79236;BME280;69062;47.460;18.812;2023-04-12T03:31:15;99673.19;;;5.59;76.88
79236;BME280;69062;47.460;18.812;2023-04-12T03:32:46;99668.91;;;5.57;77.04
79236;BME280;69062;47.460;18.812;2023-04-12T03:35:42;99675.63;;;5.64;76.10
79236;BME280;69062;47.460;18.812;2023-04-12T03:37:09;99681.06;;;5.58;76.57
79236;BME280;69062;47.460;18.812;2023-04-12T03:38:19;99668.88;;;5.58;76.52
79236;BME280;69062;47.460;18.812;2023-04-12T03:39:24;99665.47;;;5.54;76.41
79236;BME280;69062;47.460;18.812;2023-04-12T03:40:30;99667.13;;;5.57;76.40
79236;BME280;69062;47.460;18.812;2023-04-12T03:41:58;99678.38;;;5.61;75.89
79236;BME280;69062;47.460;18.812;2023-04-12T03:43:05;99671.63;;;5.53;76.14
79236;BME280;69062;47.460;18.812;2023-04-12T03:44:10;99675.25;;;5.49;76.24
79236;BME280;69062;47.460;18.812;2023-04-12T03:45:12;99675.16;;;5.52;76.23
79236;BME280;69062;47.460;18.812;2023-04-12T03:46:42;99675.25;;;5.49;76.37
79236;BME280;69062;47.460;18.812;2023-04-12T03:49:18;99672.63;;;5.51;76.83
79236;BME280;69062;47.460;18.812;2023-04-12T03:50:22;99677.84;;;5.51;76.30
79236;BME280;69062;47.460;18.812;2023-04-12T03:51:30;99686.38;;;5.56;76.00
79236;BME280;69062;47.460;18.812;2023-04-12T03:52:37;99675.03;;;5.56;75.95
79236;BME280;69062;47.460;18.812;2023-04-12T03:53:40;99672.44;;;5.56;76.18
79236;BME280;69062;47.460;18.812;2023-04-12T03:54:46;99671.41;;;5.60;75.89
79236;BME280;69062;47.460;18.812;2023-04-12T03:55:52;99685.31;;;5.62;75.59
79236;BME280;69062;47.460;18.812;2023-04-12T03:56:54;99676.75;;;5.57;75.29
79236;BME280;69062;47.460;18.812;2023-04-12T03:58:02;99679.28;;;5.60;75.78
79236;BME280;69062;47.460;18.812;2023-04-12T04:01:01;99671.41;;;5.60;75.72
79236;BME280;69062;47.460;18.812;2023-04-12T04:02:33;99675.16;;;5.52;76.22
79236;BME280;69062;47.460;18.812;2023-04-12T04:04:00;99674.94;;;5.59;75.88
79236;BME280;69062;47.460;18.812;2023-04-12T04:05:02;99669.88;;;5.54;75.99
79236;BME280;69062;47.460;18.812;2023-04-12T04:06:06;99674.19;;;5.55;75.17
79236;BME280;69062;47.460;18.812;2023-04-12T04:07:10;99667.09;;;5.59;75.81
79236;BME280;69062;47.460;18.812;2023-04-12T04:08:17;99667.09;;;5.59;75.54
79236;BME280;69062;47.460;18.812;2023-04-12T04:09:25;99672.34;;;5.59;75.45
79236;BME280;69062;47.460;18.812;2023-04-12T04:10:27;99672.28;;;5.60;74.91
79236;BME280;69062;47.460;18.812;2023-04-12T04:11:30;99664.47;;;5.59;75.57
79236;BME280;69062;47.460;18.812;2023-04-12T04:12:39;99662.88;;;5.54;75.72
79236;BME280;69062;47.460;18.812;2023-04-12T04:13:43;99674.13;;;5.57;75.37
79236;BME280;69062;47.460;18.812;2023-04-12T04:14:51;99671.41;;;5.60;75.25
79236;BME280;69062;47.460;18.812;2023-04-12T04:16:06;99675.03;;;5.56;75.21
79236;BME280;69062;47.460;18.812;2023-04-12T04:17:13;99671.50;;;5.57;75.38
79236;BME280;69062;47.460;18.812;2023-04-12T04:18:40;99668.59;;;5.64;75.09
79236;BME280;69062;47.460;18.812;2023-04-12T04:19:50;99665.97;;;5.66;75.33
79236;BME280;69062;47.460;18.812;2023-04-12T04:20:53;99667.72;;;5.65;74.96
79236;BME280;69062;47.460;18.812;2023-04-12T04:25:24;99674.47;;;5.71;74.41
79236;BME280;69062;47.460;18.812;2023-04-12T04:26:57;99671.47;;;5.58;74.83
79236;BME280;69062;47.460;18.812;2023-04-12T04:28:02;99676.72;;;5.58;75.08
79236;BME280;69062;47.460;18.812;2023-04-12T04:30:13;99672.56;;;5.52;74.72
79236;BME280;69062;47.460;18.812;2023-04-12T04:31:46;99671.41;;;5.60;74.93
79236;BME280;69062;47.460;18.812;2023-04-12T04:32:49;99669.81;;;5.56;75.31
79236;BME280;69062;47.460;18.812;2023-04-12T04:33:53;99669.16;;;5.50;75.46
79236;BME280;69062;47.460;18.812;2023-04-12T04:35:01;99674.31;;;5.52;74.98
79236;BME280;69062;47.460;18.812;2023-04-12T04:36:13;99679.34;;;5.58;75.27
79236;BME280;69062;47.460;18.812;2023-04-12T04:37:31;99685.16;;;5.66;75.30
79236;BME280;69062;47.460;18.812;2023-04-12T04:39:01;99686.28;;;5.59;75.24
79236;BME280;69062;47.460;18.812;2023-04-12T04:40:17;99682.13;;;5.53;75.14
79236;BME280;69062;47.460;18.812;2023-04-12T04:43:59;99687.19;;;5.58;75.27
79236;BME280;69062;47.460;18.812;2023-04-12T04:45:29;99692.25;;;5.63;75.12
79236;BME280;69062;47.460;18.812;2023-04-12T04:46:31;99693.09;;;5.63;75.37
79236;BME280;69062;47.460;18.812;2023-04-12T04:47:58;99693.22;;;5.60;75.23
79236;BME280;69062;47.460;18.812;2023-04-12T04:52:23;99686.22;;;5.61;74.72
79236;BME280;69062;47.460;18.812;2023-04-12T04:59:13;99682.63;;;5.63;75.20
79236;BME280;69062;47.460;18.812;2023-04-12T05:00:18;99686.94;;;5.64;74.86
79236;BME280;69062;47.460;18.812;2023-04-12T05:01:54;99690.25;;;5.69;74.85
79236;BME280;69062;47.460;18.812;2023-04-12T05:07:06;99699.59;;;5.76;75.31
79236;BME280;69062;47.460;18.812;2023-04-12T05:10:33;99691.03;;;5.71;75.20
79236;BME280;69062;47.460;18.812;2023-04-12T05:11:37;99700.44;;;5.77;75.28
79236;BME280;69062;47.460;18.812;2023-04-12T05:13:08;99698.63;;;5.79;74.84
79236;BME280;69062;47.460;18.812;2023-04-12T05:14:16;99701.00;;;5.85;74.82
79236;BME280;69062;47.460;18.812;2023-04-12T05:15:43;99700.09;;;5.86;74.96
79236;BME280;69062;47.460;18.812;2023-04-12T05:17:10;99695.84;;;5.84;74.47
79236;BME280;69062;47.460;18.812;2023-04-12T05:20:16;99698.28;;;5.88;74.99
79236;BME280;69062;47.460;18.812;2023-04-12T05:22:52;99693.72;;;5.95;75.10
79236;BME280;69062;47.460;18.812;2023-04-12T05:24:19;99697.59;;;6.06;75.02
79236;BME280;69062;47.460;18.812;2023-04-12T05:25:21;99696.88;;;6.03;74.43
79236;BME280;69062;47.460;18.812;2023-04-12T05:26:54;99701.91;;;6.09;74.25
79236;BME280;69062;47.460;18.812;2023-04-12T05:27:55;99700.00;;;6.13;74.48
79236;BME280;69062;47.460;18.812;2023-04-12T05:28:57;99695.59;;;6.13;74.69
79236;BME280;69062;47.460;18.812;2023-04-12T05:29:58;99695.22;;;6.24;74.52
79236;BME280;69062;47.460;18.812;2023-04-12T05:31:00;99699.31;;;6.29;74.90
79236;BME280;69062;47.460;18.812;2023-04-12T05:32:10;99696.00;;;6.26;74.37
79236;BME280;69062;47.460;18.812;2023-04-12T05:33:12;99684.03;;;6.19;74.27
79236;BME280;69062;47.460;18.812;2023-04-12T05:34:19;99688.81;;;6.31;74.60
79236;BME280;69062;47.460;18.812;2023-04-12T05:35:26;99688.50;;;6.39;75.40
79236;BME280;69062;47.460;18.812;2023-04-12T05:36:36;99688.50;;;6.39;73.97
79236;BME280;69062;47.460;18.812;2023-04-12T05:37:38;99683.97;;;6.42;73.50
79236;BME280;69062;47.460;18.812;2023-04-12T05:38:39;99680.19;;;6.49;73.41
79236;BME280;69062;47.460;18.812;2023-04-12T05:39:46;99683.47;;;6.54;73.07
79236;BME280;69062;47.460;18.812;2023-04-12T05:40:53;99681.72;;;6.55;73.26
79236;BME280;69062;47.460;18.812;2023-04-12T05:41:57;99692.75;;;6.63;73.42
79236;BME280;69062;47.460;18.812;2023-04-12T05:43:00;99686.72;;;6.61;72.78
79236;BME280;69062;47.460;18.812;2023-04-12T05:44:05;99686.78;;;6.59;73.17
79236;BME280;69062;47.460;18.812;2023-04-12T05:45:08;99690.59;;;6.73;73.15
79236;BME280;69062;47.460;18.812;2023-04-12T05:46:10;99688.56;;;6.79;72.81
79236;BME280;69062;47.460;18.812;2023-04-12T05:47:12;99692.00;;;6.81;72.70
79236;BME280;69062;47.460;18.812;2023-04-12T05:48:14;99692.72;;;6.85;72.81
79236;BME280;69062;47.460;18.812;2023-04-12T05:49:15;99681.44;;;6.83;72.65
79236;BME280;69062;47.460;18.812;2023-04-12T05:50:16;99684.84;;;6.85;72.77
79236;BME280;69062;47.460;18.812;2023-04-12T05:51:18;99694.34;;;6.87;72.91
79236;BME280;69062;47.460;18.812;2023-04-12T05:52:20;99688.91;;;6.92;73.01
79236;BME280;69062;47.460;18.812;2023-04-12T05:53:21;99702.78;;;6.96;72.78
79236;BME280;69062;47.460;18.812;2023-04-12T05:54:24;99691.09;;;7.03;72.11
79236;BME280;69062;47.460;18.812;2023-04-12T05:55:28;99695.47;;;7.02;72.84
79236;BME280;69062;47.460;18.812;2023-04-12T05:56:29;99696.00;;;7.10;72.92
79236;BME280;69062;47.460;18.812;2023-04-12T05:57:31;99700.19;;;7.14;71.78
79236;BME280;69062;47.460;18.812;2023-04-12T05:58:32;99702.75;;;7.16;71.75
79236;BME280;69062;47.460;18.812;2023-04-12T05:59:35;99693.69;;;7.23;71.45
79236;BME280;69062;47.460;18.812;2023-04-12T06:00:38;99704.09;;;7.26;72.13
79236;BME280;69062;47.460;18.812;2023-04-12T06:01:40;99701.03;;;7.35;71.77
79236;BME280;69062;47.460;18.812;2023-04-12T06:02:45;99702.50;;;7.42;71.31
79236;BME280;69062;47.460;18.812;2023-04-12T06:03:47;99712.22;;;7.40;70.46
79236;BME280;69062;47.460;18.812;2023-04-12T06:04:49;99716.63;;;7.40;71.14
79236;BME280;69062;47.460;18.812;2023-04-12T06:05:51;99717.53;;;7.39;70.38
79236;BME280;69062;47.460;18.812;2023-04-12T06:06:53;99713.19;;;7.38;71.02
79236;BME280;69062;47.460;18.812;2023-04-12T06:07:56;99717.31;;;7.43;70.71
79236;BME280;69062;47.460;18.812;2023-04-12T06:09:00;99710.09;;;7.49;70.90
79236;BME280;69062;47.460;18.812;2023-04-12T06:10:03;99715.13;;;7.53;70.92
79236;BME280;69062;47.460;18.812;2023-04-12T06:11:05;99718.66;;;7.54;70.38
79236;BME280;69062;47.460;18.812;2023-04-12T06:12:06;99719.19;;;7.60;71.40
79236;BME280;69062;47.460;18.812;2023-04-12T06:13:10;99712.91;;;7.64;70.64
79236;BME280;69062;47.460;18.812;2023-04-12T06:14:15;99715.69;;;7.61;70.84
79236;BME280;69062;47.460;18.812;2023-04-12T06:15:19;99715.34;;;7.69;70.38
79236;BME280;69062;47.460;18.812;2023-04-12T06:16:25;99716.88;;;7.73;70.04
79236;BME280;69062;47.460;18.812;2023-04-12T06:17:26;99708.91;;;7.74;71.02
79236;BME280;69062;47.460;18.812;2023-04-12T06:18:28;99710.06;;;7.88;71.25
79236;BME280;69062;47.460;18.812;2023-04-12T06:19:29;99704.97;;;7.85;71.03
79236;BME280;69062;47.460;18.812;2023-04-12T06:20:31;99702.19;;;7.88;70.73
79236;BME280;69062;47.460;18.812;2023-04-12T06:21:32;99708.19;;;7.91;70.18
79236;BME280;69062;47.460;18.812;2023-04-12T06:22:34;99699.44;;;7.91;70.48
79236;BME280;69062;47.460;18.812;2023-04-12T06:23:36;99705.75;;;7.87;69.95
79236;BME280;69062;47.460;18.812;2023-04-12T06:24:37;99706.91;;;8.00;70.58
79236;BME280;69062;47.460;18.812;2023-04-12T06:25:39;99707.53;;;8.05;70.30
79236;BME280;69062;47.460;18.812;2023-04-12T06:26:40;99702.19;;;8.07;69.52
79236;BME280;69062;47.460;18.812;2023-04-12T06:27:47;99701.47;;;8.03;69.44
79236;BME280;69062;47.460;18.812;2023-04-12T06:28:50;99703.25;;;8.21;69.35
79236;BME280;69062;47.460;18.812;2023-04-12T06:29:52;99694.44;;;8.22;68.69
79236;BME280;69062;47.460;18.812;2023-04-12T06:30:54;99698.41;;;8.31;68.59
79236;BME280;69062;47.460;18.812;2023-04-12T06:31:56;99705.97;;;8.39;68.93
79236;BME280;69062;47.460;18.812;2023-04-12T06:32:58;99698.88;;;8.41;67.71
79236;BME280;69062;47.460;18.812;2023-04-12T06:33:59;99703.44;;;8.54;68.08
79236;BME280;69062;47.460;18.812;2023-04-12T06:35:01;99705.34;;;8.70;67.12
79236;BME280;69062;47.460;18.812;2023-04-12T06:36:03;99708.38;;;8.79;66.39
79236;BME280;69062;47.460;18.812;2023-04-12T06:37:04;99701.88;;;8.87;65.92
79236;BME280;69062;47.460;18.812;2023-04-12T06:38:05;99701.31;;;8.97;65.84
79236;BME280;69062;47.460;18.812;2023-04-12T06:39:08;99709.69;;;9.23;65.12
79236;BME280;69062;47.460;18.812;2023-04-12T06:40:09;99704.63;;;9.53;63.54
79236;BME280;69062;47.460;18.812;2023-04-12T06:41:12;99711.69;;;9.85;62.83
79236;BME280;69062;47.460;18.812;2023-04-12T06:42:14;99703.09;;;9.98;63.37
79236;BME280;69062;47.460;18.812;2023-04-12T06:43:16;99702.53;;;10.40;61.32
79236;BME280;69062;47.460;18.812;2023-04-12T06:44:20;99699.22;;;10.52;61.42
79236;BME280;69062;47.460;18.812;2023-04-12T13:57:04;99391.72;;;18.03;24.90
79236;BME280;69062;47.460;18.812;2023-04-12T13:58:05;99386.66;;;18.09;24.42
79236;BME280;69062;47.460;18.812;2023-04-12T13:59:07;99383.00;;;18.10;24.65
79236;BME280;69062;47.460;18.812;2023-04-12T14:00:10;99386.25;;;18.04;24.50
79236;BME280;69062;47.460;18.812;2023-04-12T14:01:13;99383.69;;;18.03;24.24
79236;BME280;69062;47.460;18.812;2023-04-12T14:02:14;99381.47;;;17.98;25.32
79236;BME280;69062;47.460;18.812;2023-04-12T14:03:16;99375.84;;;18.01;24.38
79236;BME280;69062;47.460;18.812;2023-04-12T14:04:17;99383.84;;;18.11;23.08
79236;BME280;69062;47.460;18.812;2023-04-12T14:05:18;99373.63;;;17.97;24.35
79236;BME280;69062;47.460;18.812;2023-04-12T14:06:20;99383.59;;;18.04;23.87
79236;BME280;69062;47.460;18.812;2023-04-12T14:07:23;99378.38;;;18.12;22.78
79236;BME280;69062;47.460;18.812;2023-04-12T14:08:24;99372.31;;;18.20;23.42
79236;BME280;69062;47.460;18.812;2023-04-12T14:09:29;99372.16;;;18.22;21.66
79236;BME280;69062;47.460;18.812;2023-04-12T14:10:31;99379.19;;;18.23;23.40
79236;BME280;69062;47.460;18.812;2023-04-12T14:11:46;99377.91;;;18.17;23.96
79236;BME280;69062;47.460;18.812;2023-04-12T14:12:47;99374.69;;;18.13;23.87
79236;BME280;69062;47.460;18.812;2023-04-12T14:13:49;99384.69;;;18.11;23.52
79236;BME280;69062;47.460;18.812;2023-04-12T14:14:50;99376.94;;;18.08;23.01
79236;BME280;69062;47.460;18.812;2023-04-12T14:15:53;99379.53;;;17.90;22.83
79236;BME280;69062;47.460;18.812;2023-04-12T14:16:55;99378.53;;;17.91;24.04
79236;BME280;69062;47.460;18.812;2023-04-12T14:18:01;99378.53;;;18.11;24.38
79236;BME280;69062;47.460;18.812;2023-04-12T14:19:03;99381.31;;;18.09;25.53
79236;BME280;69062;47.460;18.812;2023-04-12T14:20:05;99370.78;;;17.98;23.88
79236;BME280;69062;47.460;18.812;2023-04-12T14:21:09;99380.75;;;18.06;22.95
79236;BME280;69062;47.460;18.812;2023-04-12T14:22:10;99373.63;;;17.97;23.56
79236;BME280;69062;47.460;18.812;2023-04-12T14:23:12;99373.34;;;17.90;23.92
79236;BME280;69062;47.460;18.812;2023-04-12T14:24:17;99373.63;;;17.97;24.52
79236;BME280;69062;47.460;18.812;2023-04-12T14:25:18;99376.00;;;17.90;23.17
79236;BME280;69062;47.460;18.812;2023-04-12T14:26:21;99377.25;;;17.96;24.39
79236;BME280;69062;47.460;18.812;2023-04-12T14:27:22;99376.69;;;17.92;24.46